sensor_id;sensor_type;location;lat;lon;timestamp;temperature;humidity
26691;DHT22;14307;51.718;8.938;2023-06-14T00:00:21;15.70;99.90
26691;DHT22;14307;51.718;8.938;2023-06-14T00:02:48;15.70;99.90
26691;DHT22;14307;51.718;8.938;2023-06-14T00:05:15;15.70;99.90
26691;DHT22;14307;51.718;8.938;2023-06-14T00:07:42;15.70;99.90
26691;DHT22;14307;51.718;8.938;2023-06-14T00:10:10;15.70;99.90
26691;DHT22;14307;51.718;8.938;2023-06-14T00:12:38;15.80;99.90
26691;DHT22;14307;51.718;8.938;2023-06-14T00:15:07;15.80;99.90
26691;DHT22;14307;51.718;8.938;2023-06-14T00:17:36;15.80;99.90
26691;DHT22;14307;51.718;8.938;2023-06-14T00:20:06;15.70;99.90
26691;DHT22;14307;51.718;8.938;2023-06-14T00:22:33;15.80;99.90
26691;DHT22;14307;51.718;8.938;2023-06-14T00:25:00;15.80;99.90
26691;DHT22;14307;51.718;8.938;2023-06-14T00:27:45;15.70;99.90
26691;DHT22;14307;51.718;8.938;2023-06-14T00:30:14;15.60;99.90
26691;DHT22;14307;51.718;8.938;2023-06-14T00:32:41;15.60;99.90
26691;DHT22;14307;51.718;8.938;2023-06-14T00:35:10;15.50;99.90
26691;DHT22;14307;51.718;8.938;2023-06-14T00:37:37;15.50;99.90
26691;DHT22;14307;51.718;8.938;2023-06-14T00:40:06;15.50;99.90
26691;DHT22;14307;51.718;8.938;2023-06-14T00:42:33;15.50;99.90
26691;DHT22;14307;51.718;8.938;2023-06-14T00:45:00;15.50;99.90
26691;DHT22;14307;51.718;8.938;2023-06-14T00:47:27;15.40;99.90
26691;DHT22;14307;51.718;8.938;2023-06-14T00:49:55;15.20;99.90
26691;DHT22;14307;51.718;8.938;2023-06-14T00:52:23;15.20;99.90
26691;DHT22;14307;51.718;8.938;2023-06-14T00:54:51;15.20;99.90
26691;DHT22;14307;51.718;8.938;2023-06-14T00:57:18;15.30;99.90
26691;DHT22;14307;51.718;8.938;2023-06-14T00:59:48;15.30;99.90
26691;DHT22;14307;51.718;8.938;2023-06-14T01:02:15;15.20;99.90
26691;DHT22;14307;51.718;8.938;2023-06-14T01:04:46;15.20;99.90
26691;DHT22;14307;51.718;8.938;2023-06-14T01:12:51;15.20;99.90
26691;DHT22;14307;51.718;8.938;2023-06-14T01:15:20;15.00;99.90
26691;DHT22;14307;51.718;8.938;2023-06-14T01:17:50;14.90;99.90
26691;DHT22;14307;51.718;8.938;2023-06-14T01:20:22;14.80;99.90
26691;DHT22;14307;51.718;8.938;2023-06-14T01:22:56;14.80;99.90
26691;DHT22;14307;51.718;8.938;2023-06-14T01:25:23;14.70;99.90
26691;DHT22;14307;51.718;8.938;2023-06-14T01:27:52;14.70;99.90
26691;DHT22;14307;51.718;8.938;2023-06-14T01:30:20;14.60;99.90
26691;DHT22;14307;51.718;8.938;2023-06-14T01:32:48;14.50;99.90
26691;DHT22;14307;51.718;8.938;2023-06-14T01:35:17;14.40;99.90
26691;DHT22;14307;51.718;8.938;2023-06-14T01:37:47;14.20;99.90
26691;DHT22;14307;51.718;8.938;2023-06-14T01:40:15;14.10;99.90
26691;DHT22;14307;51.718;8.938;2023-06-14T01:42:44;14.00;99.90
26691;DHT22;14307;51.718;8.938;2023-06-14T01:45:12;13.90;99.90
26691;DHT22;14307;51.718;8.938;2023-06-14T01:47:40;13.80;99.90
26691;DHT22;14307;51.718;8.938;2023-06-14T01:50:08;13.80;99.90
26691;DHT22;14307;51.718;8.938;2023-06-14T01:52:37;13.70;99.90
26691;DHT22;14307;51.718;8.938;2023-06-14T01:55:06;13.50;99.90
26691;DHT22;14307;51.718;8.938;2023-06-14T01:57:34;13.50;99.90
26691;DHT22;14307;51.718;8.938;2023-06-14T02:00:01;13.30;99.90
26691;DHT22;14307;51.718;8.938;2023-06-14T02:02:38;13.20;99.90
26691;DHT22;14307;51.718;8.938;2023-06-14T02:05:06;13.20;99.90
26691;DHT22;14307;51.718;8.938;2023-06-14T02:07:33;13.00;99.90
26691;DHT22;14307;51.718;8.938;2023-06-14T02:10:00;12.70;99.90
26691;DHT22;14307;51.718;8.938;2023-06-14T02:12:26;12.60;99.90
26691;DHT22;14307;51.718;8.938;2023-06-14T02:14:53;12.60;99.90
26691;DHT22;14307;51.718;8.938;2023-06-14T02:17:22;12.40;99.90
26691;DHT22;14307;51.718;8.938;2023-06-14T02:19:49;12.30;99.90
26691;DHT22;14307;51.718;8.938;2023-06-14T02:22:17;12.30;99.90
26691;DHT22;14307;51.718;8.938;2023-06-14T02:24:43;12.10;99.90
26691;DHT22;14307;51.718;8.938;2023-06-14T02:27:12;12.00;99.90
26691;DHT22;14307;51.718;8.938;2023-06-14T02:29:38;11.90;99.90
26691;DHT22;14307;51.718;8.938;2023-06-14T02:32:05;11.70;99.90
26691;DHT22;14307;51.718;8.938;2023-06-14T02:34:34;11.70;99.90
26691;DHT22;14307;51.718;8.938;2023-06-14T02:37:01;11.60;99.90
26691;DHT22;14307;51.718;8.938;2023-06-14T02:39:29;11.50;99.90
26691;DHT22;14307;51.718;8.938;2023-06-14T02:41:56;11.40;99.90
26691;DHT22;14307;51.718;8.938;2023-06-14T02:44:26;11.30;99.90
26691;DHT22;14307;51.718;8.938;2023-06-14T02:46:54;11.30;99.90
26691;DHT22;14307;51.718;8.938;2023-06-14T02:49:22;11.20;99.90
26691;DHT22;14307;51.718;8.938;2023-06-14T02:51:49;11.10;99.90
26691;DHT22;14307;51.718;8.938;2023-06-14T02:54:16;11.00;99.90
26691;DHT22;14307;51.718;8.938;2023-06-14T02:56:44;11.10;99.90
26691;DHT22;14307;51.718;8.938;2023-06-14T02:59:10;11.10;99.90
26691;DHT22;14307;51.718;8.938;2023-06-14T03:01:38;11.00;99.90
26691;DHT22;14307;51.718;8.938;2023-06-14T03:04:10;11.00;99.90
26691;DHT22;14307;51.718;8.938;2023-06-14T03:06:39;11.00;99.90
26691;DHT22;14307;51.718;8.938;2023-06-14T03:09:07;11.00;99.90
26691;DHT22;14307;51.718;8.938;2023-06-14T03:11:38;10.80;99.90
26691;DHT22;14307;51.718;8.938;2023-06-14T03:14:04;10.60;99.90
26691;DHT22;14307;51.718;8.938;2023-06-14T03:16:34;10.50;99.90
26691;DHT22;14307;51.718;8.938;2023-06-14T03:19:01;10.40;99.90
26691;DHT22;14307;51.718;8.938;2023-06-14T03:21:31;10.30;99.90
26691;DHT22;14307;51.718;8.938;2023-06-14T03:23:59;10.30;99.90
26691;DHT22;14307;51.718;8.938;2023-06-14T03:26:27;10.30;99.90
26691;DHT22;14307;51.718;8.938;2023-06-14T03:28:55;10.20;99.90
26691;DHT22;14307;51.718;8.938;2023-06-14T03:31:23;10.20;99.90
26691;DHT22;14307;51.718;8.938;2023-06-14T03:33:50;10.10;99.90
26691;DHT22;14307;51.718;8.938;2023-06-14T03:36:19;10.10;99.90
26691;DHT22;14307;51.718;8.938;2023-06-14T03:38:45;10.10;99.90
26691;DHT22;14307;51.718;8.938;2023-06-14T03:41:14;10.10;99.90
26691;DHT22;14307;51.718;8.938;2023-06-14T03:43:42;10.00;99.90
26691;DHT22;14307;51.718;8.938;2023-06-14T03:46:09;10.00;99.90
26691;DHT22;14307;51.718;8.938;2023-06-14T03:48:36;10.00;99.90
26691;DHT22;14307;51.718;8.938;2023-06-14T03:51:03;10.10;99.90
26691;DHT22;14307;51.718;8.938;2023-06-14T03:53:30;10.30;99.90
26691;DHT22;14307;51.718;8.938;2023-06-14T03:55:58;10.30;99.90
26691;DHT22;14307;51.718;8.938;2023-06-14T03:58:33;10.40;99.90
26691;DHT22;14307;51.718;8.938;2023-06-14T04:01:00;10.40;99.90
26691;DHT22;14307;51.718;8.938;2023-06-14T04:03:30;10.40;99.90
26691;DHT22;14307;51.718;8.938;2023-06-14T04:05:59;10.30;99.90
26691;DHT22;14307;51.718;8.938;2023-06-14T04:08:26;10.30;99.90
26691;DHT22;14307;51.718;8.938;2023-06-14T04:10:53;10.30;99.90
26691;DHT22;14307;51.718;8.938;2023-06-14T04:13:20;10.30;99.90
26691;DHT22;14307;51.718;8.938;2023-06-14T04:15:47;10.30;99.90
26691;DHT22;14307;51.718;8.938;2023-06-14T04:18:19;10.30;99.90
26691;DHT22;14307;51.718;8.938;2023-06-14T04:20:50;10.40;99.90
26691;DHT22;14307;51.718;8.938;2023-06-14T04:23:18;10.40;99.90
26691;DHT22;14307;51.718;8.938;2023-06-14T04:25:51;10.50;99.90
26691;DHT22;14307;51.718;8.938;2023-06-14T04:28:18;10.60;99.90
26691;DHT22;14307;51.718;8.938;2023-06-14T04:30:46;10.70;99.90
26691;DHT22;14307;51.718;8.938;2023-06-14T04:33:15;11.10;99.90
26691;DHT22;14307;51.718;8.938;2023-06-14T04:35:42;11.40;99.90
26691;DHT22;14307;51.718;8.938;2023-06-14T04:38:09;11.80;99.90
26691;DHT22;14307;51.718;8.938;2023-06-14T04:40:37;12.50;99.90
26691;DHT22;14307;51.718;8.938;2023-06-14T04:43:10;12.80;99.90
26691;DHT22;14307;51.718;8.938;2023-06-14T04:45:41;13.20;99.90
26691;DHT22;14307;51.718;8.938;2023-06-14T04:48:12;13.40;99.90
26691;DHT22;14307;51.718;8.938;2023-06-14T04:50:39;13.70;99.90
26691;DHT22;14307;51.718;8.938;2023-06-14T04:53:07;14.00;99.90
26691;DHT22;14307;51.718;8.938;2023-06-14T04:55:35;14.30;99.90
26691;DHT22;14307;51.718;8.938;2023-06-14T04:58:03;14.50;99.90
26691;DHT22;14307;51.718;8.938;2023-06-14T05:00:31;14.80;99.90
26691;DHT22;14307;51.718;8.938;2023-06-14T05:02:58;14.80;99.90
26691;DHT22;14307;51.718;8.938;2023-06-14T05:05:25;14.80;99.90
26691;DHT22;14307;51.718;8.938;2023-06-14T05:07:52;15.00;99.90
26691;DHT22;14307;51.718;8.938;2023-06-14T05:10:44;15.30;99.90
26691;DHT22;14307;51.718;8.938;2023-06-14T05:13:11;15.80;99.90
26691;DHT22;14307;51.718;8.938;2023-06-14T05:15:38;15.40;99.90
26691;DHT22;14307;51.718;8.938;2023-06-14T05:18:05;15.50;99.90
26691;DHT22;14307;51.718;8.938;2023-06-14T05:20:32;15.50;99.90
26691;DHT22;14307;51.718;8.938;2023-06-14T05:22:58;15.60;99.90
26691;DHT22;14307;51.718;8.938;2023-06-14T05:25:25;15.80;99.90
26691;DHT22;14307;51.718;8.938;2023-06-14T05:27:52;15.90;99.90
26691;DHT22;14307;51.718;8.938;2023-06-14T05:30:19;16.00;99.90
26691;DHT22;14307;51.718;8.938;2023-06-14T05:32:46;16.20;99.90
26691;DHT22;14307;51.718;8.938;2023-06-14T05:35:13;15.90;99.90
26691;DHT22;14307;51.718;8.938;2023-06-14T05:37:40;15.60;99.90
26691;DHT22;14307;51.718;8.938;2023-06-14T05:40:07;15.30;99.90
26691;DHT22;14307;51.718;8.938;2023-06-14T05:42:35;15.10;99.90
26691;DHT22;14307;51.718;8.938;2023-06-14T05:45:02;15.60;99.90
26691;DHT22;14307;51.718;8.938;2023-06-14T05:47:29;15.70;99.90
26691;DHT22;14307;51.718;8.938;2023-06-14T05:49:55;15.70;99.90
26691;DHT22;14307;51.718;8.938;2023-06-14T05:52:22;15.90;99.90
26691;DHT22;14307;51.718;8.938;2023-06-14T05:54:49;15.90;99.90
26691;DHT22;14307;51.718;8.938;2023-06-14T05:57:16;15.70;99.90
26691;DHT22;14307;51.718;8.938;2023-06-14T05:59:43;15.90;99.90
26691;DHT22;14307;51.718;8.938;2023-06-14T06:02:10;16.50;99.90
26691;DHT22;14307;51.718;8.938;2023-06-14T06:04:36;16.60;99.90
26691;DHT22;14307;51.718;8.938;2023-06-14T06:07:03;16.30;99.90
26691;DHT22;14307;51.718;8.938;2023-06-14T06:09:30;16.10;99.90
26691;DHT22;14307;51.718;8.938;2023-06-14T06:11:57;15.90;99.90
26691;DHT22;14307;51.718;8.938;2023-06-14T06:14:24;15.70;99.90
26691;DHT22;14307;51.718;8.938;2023-06-14T06:16:51;15.80;99.90
26691;DHT22;14307;51.718;8.938;2023-06-14T06:19:19;16.00;99.90
26691;DHT22;14307;51.718;8.938;2023-06-14T06:21:46;16.00;99.90
26691;DHT22;14307;51.718;8.938;2023-06-14T06:24:13;15.80;99.90
26691;DHT22;14307;51.718;8.938;2023-06-14T06:26:39;15.90;99.90
26691;DHT22;14307;51.718;8.938;2023-06-14T06:29:06;15.90;99.90
26691;DHT22;14307;51.718;8.938;2023-06-14T06:31:33;16.00;99.90
26691;DHT22;14307;51.718;8.938;2023-06-14T06:34:00;16.20;99.90
26691;DHT22;14307;51.718;8.938;2023-06-14T06:36:27;16.60;99.90
26691;DHT22;14307;51.718;8.938;2023-06-14T06:38:53;17.00;99.90
26691;DHT22;14307;51.718;8.938;2023-06-14T06:41:20;17.00;99.90
26691;DHT22;14307;51.718;8.938;2023-06-14T06:43:47;16.90;99.90
26691;DHT22;14307;51.718;8.938;2023-06-14T06:46:16;16.30;99.90
26691;DHT22;14307;51.718;8.938;2023-06-14T06:48:44;16.10;99.90
26691;DHT22;14307;51.718;8.938;2023-06-14T06:51:11;16.20;99.90
26691;DHT22;14307;51.718;8.938;2023-06-14T06:53:41;16.70;99.90
26691;DHT22;14307;51.718;8.938;2023-06-14T06:56:14;17.10;99.90
26691;DHT22;14307;51.718;8.938;2023-06-14T06:58:41;17.30;99.90
26691;DHT22;14307;51.718;8.938;2023-06-14T07:01:07;17.50;99.90
26691;DHT22;14307;51.718;8.938;2023-06-14T07:03:35;17.20;99.90
26691;DHT22;14307;51.718;8.938;2023-06-14T07:06:02;16.90;99.90
26691;DHT22;14307;51.718;8.938;2023-06-14T07:08:29;16.50;99.90
26691;DHT22;14307;51.718;8.938;2023-06-14T07:10:56;16.70;99.90
26691;DHT22;14307;51.718;8.938;2023-06-14T07:13:23;16.50;99.90
26691;DHT22;14307;51.718;8.938;2023-06-14T07:15:49;16.80;99.90
26691;DHT22;14307;51.718;8.938;2023-06-14T07:18:16;16.80;99.90
26691;DHT22;14307;51.718;8.938;2023-06-14T07:20:43;16.90;99.90
26691;DHT22;14307;51.718;8.938;2023-06-14T07:23:10;16.90;99.90
26691;DHT22;14307;51.718;8.938;2023-06-14T07:25:37;17.00;99.90
26691;DHT22;14307;51.718;8.938;2023-06-14T07:28:04;16.90;99.90
26691;DHT22;14307;51.718;8.938;2023-06-14T07:30:31;16.60;99.90
26691;DHT22;14307;51.718;8.938;2023-06-14T07:32:57;16.90;99.90
26691;DHT22;14307;51.718;8.938;2023-06-14T07:35:24;17.00;99.90
26691;DHT22;14307;51.718;8.938;2023-06-14T07:37:51;17.00;99.90
26691;DHT22;14307;51.718;8.938;2023-06-14T07:40:18;16.90;99.90
26691;DHT22;14307;51.718;8.938;2023-06-14T07:42:45;16.90;99.90
26691;DHT22;14307;51.718;8.938;2023-06-14T07:45:13;16.90;99.90
26691;DHT22;14307;51.718;8.938;2023-06-14T07:47:41;17.20;99.90
26691;DHT22;14307;51.718;8.938;2023-06-14T07:50:09;17.10;99.90
26691;DHT22;14307;51.718;8.938;2023-06-14T07:52:37;17.40;99.90
26691;DHT22;14307;51.718;8.938;2023-06-14T07:55:04;17.50;99.90
26691;DHT22;14307;51.718;8.938;2023-06-14T07:57:31;18.20;99.90
26691;DHT22;14307;51.718;8.938;2023-06-14T07:59:58;17.90;99.90
26691;DHT22;14307;51.718;8.938;2023-06-14T08:02:24;17.40;99.90
26691;DHT22;14307;51.718;8.938;2023-06-14T08:04:51;17.90;99.90
26691;DHT22;14307;51.718;8.938;2023-06-14T08:07:19;17.30;99.90
26691;DHT22;14307;51.718;8.938;2023-06-14T08:09:46;17.90;99.90
26691;DHT22;14307;51.718;8.938;2023-06-14T08:12:13;17.50;99.90
26691;DHT22;14307;51.718;8.938;2023-06-14T08:14:40;17.80;99.90
26691;DHT22;14307;51.718;8.938;2023-06-14T08:17:06;18.40;99.90
26691;DHT22;14307;51.718;8.938;2023-06-14T08:19:33;18.40;99.90
26691;DHT22;14307;51.718;8.938;2023-06-14T08:22:00;18.20;99.90
26691;DHT22;14307;51.718;8.938;2023-06-14T08:24:27;17.70;99.90
26691;DHT22;14307;51.718;8.938;2023-06-14T08:26:55;17.80;99.90
26691;DHT22;14307;51.718;8.938;2023-06-14T08:29:22;18.40;99.90
26691;DHT22;14307;51.718;8.938;2023-06-14T08:31:49;18.50;99.90
26691;DHT22;14307;51.718;8.938;2023-06-14T08:34:16;18.20;99.90
26691;DHT22;14307;51.718;8.938;2023-06-14T08:36:43;18.10;99.90
26691;DHT22;14307;51.718;8.938;2023-06-14T08:39:09;18.30;99.90
26691;DHT22;14307;51.718;8.938;2023-06-14T08:41:37;18.10;99.90
26691;DHT22;14307;51.718;8.938;2023-06-14T08:44:04;18.20;99.90
26691;DHT22;14307;51.718;8.938;2023-06-14T08:46:32;18.40;99.90
26691;DHT22;14307;51.718;8.938;2023-06-14T08:49:01;18.60;99.90
26691;DHT22;14307;51.718;8.938;2023-06-14T08:51:31;18.90;99.90
26691;DHT22;14307;51.718;8.938;2023-06-14T08:54:03;18.90;99.90
26691;DHT22;14307;51.718;8.938;2023-06-14T08:56:31;18.60;99.90
26691;DHT22;14307;51.718;8.938;2023-06-14T08:58:58;18.70;99.90
26691;DHT22;14307;51.718;8.938;2023-06-14T09:01:34;18.90;99.90
26691;DHT22;14307;51.718;8.938;2023-06-14T09:04:02;19.00;99.90
26691;DHT22;14307;51.718;8.938;2023-06-14T09:06:29;19.10;99.90
26691;DHT22;14307;51.718;8.938;2023-06-14T09:08:56;19.00;99.90
26691;DHT22;14307;51.718;8.938;2023-06-14T09:11:24;19.10;99.90
26691;DHT22;14307;51.718;8.938;2023-06-14T09:13:52;19.10;99.90
26691;DHT22;14307;51.718;8.938;2023-06-14T09:16:19;19.20;99.90
26691;DHT22;14307;51.718;8.938;2023-06-14T09:18:47;19.10;99.90
26691;DHT22;14307;51.718;8.938;2023-06-14T09:21:17;18.90;99.90
26691;DHT22;14307;51.718;8.938;2023-06-14T09:23:46;19.00;99.90
26691;DHT22;14307;51.718;8.938;2023-06-14T09:26:15;18.80;99.90
26691;DHT22;14307;51.718;8.938;2023-06-14T09:31:14;18.90;99.90
26691;DHT22;14307;51.718;8.938;2023-06-14T09:33:45;18.90;99.90
26691;DHT22;14307;51.718;8.938;2023-06-14T09:36:21;18.60;99.90
26691;DHT22;14307;51.718;8.938;2023-06-14T09:38:55;18.70;99.90
26691;DHT22;14307;51.718;8.938;2023-06-14T09:41:39;19.10;99.90
26691;DHT22;14307;51.718;8.938;2023-06-14T09:44:07;19.60;99.90
26691;DHT22;14307;51.718;8.938;2023-06-14T09:46:38;19.60;99.90
26691;DHT22;14307;51.718;8.938;2023-06-14T09:49:06;19.50;99.90
26691;DHT22;14307;51.718;8.938;2023-06-14T09:51:34;19.40;99.90
26691;DHT22;14307;51.718;8.938;2023-06-14T09:54:02;19.70;99.90
26691;DHT22;14307;51.718;8.938;2023-06-14T09:56:35;19.60;99.90
26691;DHT22;14307;51.718;8.938;2023-06-14T09:59:09;19.70;99.90
26691;DHT22;14307;51.718;8.938;2023-06-14T10:01:43;19.50;99.90
26691;DHT22;14307;51.718;8.938;2023-06-14T10:04:13;19.70;99.90
26691;DHT22;14307;51.718;8.938;2023-06-14T10:06:45;19.30;99.90
26691;DHT22;14307;51.718;8.938;2023-06-14T10:09:12;19.70;99.90
26691;DHT22;14307;51.718;8.938;2023-06-14T10:11:40;19.70;99.90
26691;DHT22;14307;51.718;8.938;2023-06-14T10:14:12;19.70;99.90
26691;DHT22;14307;51.718;8.938;2023-06-14T10:17:33;19.70;99.90
26691;DHT22;14307;51.718;8.938;2023-06-14T10:19:48;20.20;99.90
26691;DHT22;14307;51.718;8.938;2023-06-14T10:22:32;20.70;99.90
26691;DHT22;14307;51.718;8.938;2023-06-14T10:25:01;21.10;99.90
26691;DHT22;14307;51.718;8.938;2023-06-14T10:27:28;21.10;99.90
26691;DHT22;14307;51.718;8.938;2023-06-14T10:32:25;20.10;99.90
26691;DHT22;14307;51.718;8.938;2023-06-14T10:34:57;20.40;99.90
26691;DHT22;14307;51.718;8.938;2023-06-14T10:37:24;20.60;99.90
26691;DHT22;14307;51.718;8.938;2023-06-14T10:39:51;20.80;99.90
26691;DHT22;14307;51.718;8.938;2023-06-14T10:42:18;20.70;99.90
26691;DHT22;14307;51.718;8.938;2023-06-14T10:44:50;21.10;99.90
26691;DHT22;14307;51.718;8.938;2023-06-14T10:49:55;21.10;99.90
26691;DHT22;14307;51.718;8.938;2023-06-14T10:52:27;20.90;99.90
26691;DHT22;14307;51.718;8.938;2023-06-14T10:55:12;20.70;99.90
26691;DHT22;14307;51.718;8.938;2023-06-14T10:57:47;21.00;99.90
26691;DHT22;14307;51.718;8.938;2023-06-14T11:00:20;21.10;99.90
26691;DHT22;14307;51.718;8.938;2023-06-14T11:05:54;20.60;99.90
26691;DHT22;14307;51.718;8.938;2023-06-14T11:08:33;21.00;99.90
26691;DHT22;14307;51.718;8.938;2023-06-14T11:11:09;20.60;99.90
26691;DHT22;14307;51.718;8.938;2023-06-14T11:13:41;20.10;99.90
26691;DHT22;14307;51.718;8.938;2023-06-14T11:16:15;20.00;99.90
26691;DHT22;14307;51.718;8.938;2023-06-14T11:18:44;20.30;99.90
26691;DHT22;14307;51.718;8.938;2023-06-14T11:21:14;20.10;99.90
26691;DHT22;14307;51.718;8.938;2023-06-14T11:23:41;19.90;99.90
26691;DHT22;14307;51.718;8.938;2023-06-14T11:26:10;19.70;99.90
26691;DHT22;14307;51.718;8.938;2023-06-14T11:28:38;19.20;99.90
26691;DHT22;14307;51.718;8.938;2023-06-14T11:31:05;19.20;99.90
26691;DHT22;14307;51.718;8.938;2023-06-14T11:33:32;19.30;99.90
26691;DHT22;14307;51.718;8.938;2023-06-14T11:36:01;19.90;99.90
26691;DHT22;14307;51.718;8.938;2023-06-14T11:38:28;20.20;99.90
26691;DHT22;14307;51.718;8.938;2023-06-14T11:40:59;20.20;99.90
26691;DHT22;14307;51.718;8.938;2023-06-14T11:43:26;20.40;99.90
26691;DHT22;14307;51.718;8.938;2023-06-14T11:45:53;20.80;99.90
26691;DHT22;14307;51.718;8.938;2023-06-14T11:48:41;21.10;99.90
26691;DHT22;14307;51.718;8.938;2023-06-14T11:51:08;20.70;99.90
26691;DHT22;14307;51.718;8.938;2023-06-14T11:53:35;20.60;99.90
26691;DHT22;14307;51.718;8.938;2023-06-14T11:56:03;20.80;99.90
26691;DHT22;14307;51.718;8.938;2023-06-14T11:58:30;21.00;99.90
26691;DHT22;14307;51.718;8.938;2023-06-14T12:00:57;21.30;99.90
26691;DHT22;14307;51.718;8.938;2023-06-14T12:03:25;21.20;99.90
26691;DHT22;14307;51.718;8.938;2023-06-14T12:06:03;21.70;99.90
26691;DHT22;14307;51.718;8.938;2023-06-14T12:08:38;22.00;99.90
26691;DHT22;14307;51.718;8.938;2023-06-14T12:11:12;21.50;99.90
26691;DHT22;14307;51.718;8.938;2023-06-14T12:13:43;21.50;99.90
26691;DHT22;14307;51.718;8.938;2023-06-14T12:16:11;21.50;99.90
26691;DHT22;14307;51.718;8.938;2023-06-14T12:18:39;21.60;99.90
26691;DHT22;14307;51.718;8.938;2023-06-14T12:21:08;21.30;99.90
26691;DHT22;14307;51.718;8.938;2023-06-14T12:23:49;21.30;99.90
26691;DHT22;14307;51.718;8.938;2023-06-14T12:26:18;21.20;99.90
26691;DHT22;14307;51.718;8.938;2023-06-14T12:28:46;20.70;99.90
26691;DHT22;14307;51.718;8.938;2023-06-14T12:31:15;20.50;99.90
26691;DHT22;14307;51.718;8.938;2023-06-14T12:33:43;20.80;99.90
26691;DHT22;14307;51.718;8.938;2023-06-14T12:36:13;21.20;99.90
26691;DHT22;14307;51.718;8.938;2023-06-14T12:38:39;21.30;99.90
26691;DHT22;14307;51.718;8.938;2023-06-14T12:41:06;21.60;99.90
26691;DHT22;14307;51.718;8.938;2023-06-14T12:43:34;21.90;99.90
26691;DHT22;14307;51.718;8.938;2023-06-14T12:46:00;21.80;99.90
26691;DHT22;14307;51.718;8.938;2023-06-14T12:48:27;21.90;99.90
26691;DHT22;14307;51.718;8.938;2023-06-14T12:50:56;21.90;99.90
26691;DHT22;14307;51.718;8.938;2023-06-14T12:53:23;21.80;99.90
26691;DHT22;14307;51.718;8.938;2023-06-14T12:55:50;21.70;99.90
26691;DHT22;14307;51.718;8.938;2023-06-14T12:58:19;21.40;99.90
26691;DHT22;14307;51.718;8.938;2023-06-14T13:00:47;21.50;99.90
26691;DHT22;14307;51.718;8.938;2023-06-14T13:03:14;21.40;99.90
26691;DHT22;14307;51.718;8.938;2023-06-14T13:05:41;21.20;99.90
26691;DHT22;14307;51.718;8.938;2023-06-14T13:08:09;20.70;99.90
26691;DHT22;14307;51.718;8.938;2023-06-14T13:10:36;20.90;99.90
26691;DHT22;14307;51.718;8.938;2023-06-14T13:13:02;20.80;99.90
26691;DHT22;14307;51.718;8.938;2023-06-14T13:15:29;20.80;99.90
26691;DHT22;14307;51.718;8.938;2023-06-14T13:17:56;20.70;99.90
26691;DHT22;14307;51.718;8.938;2023-06-14T13:20:23;20.50;99.90
26691;DHT22;14307;51.718;8.938;2023-06-14T13:22:50;20.40;99.90
26691;DHT22;14307;51.718;8.938;2023-06-14T13:25:17;20.50;99.90
26691;DHT22;14307;51.718;8.938;2023-06-14T13:27:44;20.80;99.90
26691;DHT22;14307;51.718;8.938;2023-06-14T13:30:11;21.10;99.90
26691;DHT22;14307;51.718;8.938;2023-06-14T13:32:38;21.20;99.90
26691;DHT22;14307;51.718;8.938;2023-06-14T13:35:05;21.60;99.90
26691;DHT22;14307;51.718;8.938;2023-06-14T13:37:32;21.40;99.90
26691;DHT22;14307;51.718;8.938;2023-06-14T13:39:58;21.10;99.90
26691;DHT22;14307;51.718;8.938;2023-06-14T13:42:25;21.20;99.90
26691;DHT22;14307;51.718;8.938;2023-06-14T13:44:52;20.90;99.90
26691;DHT22;14307;51.718;8.938;2023-06-14T13:47:19;20.90;99.90
26691;DHT22;14307;51.718;8.938;2023-06-14T13:49:46;21.00;99.90
26691;DHT22;14307;51.718;8.938;2023-06-14T13:52:14;21.00;99.90
26691;DHT22;14307;51.718;8.938;2023-06-14T13:54:40;20.80;99.90
26691;DHT22;14307;51.718;8.938;2023-06-14T13:57:08;20.70;99.90
26691;DHT22;14307;51.718;8.938;2023-06-14T13:59:35;20.80;99.90
26691;DHT22;14307;51.718;8.938;2023-06-14T14:02:02;21.50;99.90
26691;DHT22;14307;51.718;8.938;2023-06-14T14:04:30;22.10;99.90
26691;DHT22;14307;51.718;8.938;2023-06-14T14:06:57;22.80;99.90
26691;DHT22;14307;51.718;8.938;2023-06-14T14:09:23;23.10;99.90
26691;DHT22;14307;51.718;8.938;2023-06-14T14:11:50;23.00;99.90
26691;DHT22;14307;51.718;8.938;2023-06-14T14:14:17;23.10;99.90
26691;DHT22;14307;51.718;8.938;2023-06-14T14:16:44;22.30;99.90
26691;DHT22;14307;51.718;8.938;2023-06-14T14:19:11;22.00;99.90
26691;DHT22;14307;51.718;8.938;2023-06-14T14:21:37;21.60;99.90
26691;DHT22;14307;51.718;8.938;2023-06-14T14:24:04;21.50;99.90
26691;DHT22;14307;51.718;8.938;2023-06-14T14:26:31;21.50;99.90
26691;DHT22;14307;51.718;8.938;2023-06-14T14:28:58;21.50;99.90
26691;DHT22;14307;51.718;8.938;2023-06-14T14:31:25;21.50;99.90
26691;DHT22;14307;51.718;8.938;2023-06-14T14:33:52;21.90;99.90
26691;DHT22;14307;51.718;8.938;2023-06-14T14:36:19;21.90;99.90
26691;DHT22;14307;51.718;8.938;2023-06-14T14:38:46;21.60;99.90
26691;DHT22;14307;51.718;8.938;2023-06-14T14:41:14;21.30;99.90
26691;DHT22;14307;51.718;8.938;2023-06-14T14:43:40;21.50;99.90
26691;DHT22;14307;51.718;8.938;2023-06-14T14:46:07;21.30;99.90
26691;DHT22;14307;51.718;8.938;2023-06-14T14:48:34;21.00;99.90
26691;DHT22;14307;51.718;8.938;2023-06-14T14:51:00;21.50;99.90
26691;DHT22;14307;51.718;8.938;2023-06-14T14:53:27;22.10;99.90
26691;DHT22;14307;51.718;8.938;2023-06-14T14:55:54;22.10;99.90
26691;DHT22;14307;51.718;8.938;2023-06-14T14:58:21;22.10;99.90
26691;DHT22;14307;51.718;8.938;2023-06-14T15:00:48;22.60;99.90
26691;DHT22;14307;51.718;8.938;2023-06-14T15:03:15;23.10;99.90
26691;DHT22;14307;51.718;8.938;2023-06-14T15:05:42;22.70;99.90
26691;DHT22;14307;51.718;8.938;2023-06-14T15:08:09;22.50;99.90
26691;DHT22;14307;51.718;8.938;2023-06-14T15:10:41;22.60;99.90
26691;DHT22;14307;51.718;8.938;2023-06-14T15:13:09;22.30;99.90
26691;DHT22;14307;51.718;8.938;2023-06-14T15:15:36;22.00;99.90
26691;DHT22;14307;51.718;8.938;2023-06-14T15:18:03;22.20;99.90
26691;DHT22;14307;51.718;8.938;2023-06-14T15:20:30;22.30;99.90
26691;DHT22;14307;51.718;8.938;2023-06-14T15:22:57;22.60;99.90
26691;DHT22;14307;51.718;8.938;2023-06-14T15:25:27;23.20;99.90
26691;DHT22;14307;51.718;8.938;2023-06-14T15:27:54;23.20;99.90
26691;DHT22;14307;51.718;8.938;2023-06-14T15:30:21;22.70;99.90
26691;DHT22;14307;51.718;8.938;2023-06-14T15:32:48;22.70;99.90
26691;DHT22;14307;51.718;8.938;2023-06-14T15:35:16;22.70;99.90
26691;DHT22;14307;51.718;8.938;2023-06-14T15:37:44;22.40;99.90
26691;DHT22;14307;51.718;8.938;2023-06-14T15:40:11;22.50;99.90
26691;DHT22;14307;51.718;8.938;2023-06-14T15:42:39;22.00;99.90
26691;DHT22;14307;51.718;8.938;2023-06-14T15:45:06;21.90;99.90
26691;DHT22;14307;51.718;8.938;2023-06-14T15:47:32;22.20;99.90
26691;DHT22;14307;51.718;8.938;2023-06-14T15:50:00;22.20;99.90
26691;DHT22;14307;51.718;8.938;2023-06-14T15:52:26;22.20;99.90